createdAt,value
2023-02-11T00:00:56.738Z,13.80
2023-02-11T00:03:23.927Z,14.30
2023-02-11T00:05:58.618Z,14.85
2023-02-11T00:08:25.891Z,13.90
2023-02-11T00:10:54.055Z,14.60
2023-02-11T00:13:20.974Z,15.15
2023-02-11T00:15:48.004Z,14.23
2023-02-11T00:18:15.431Z,14.38
2023-02-11T00:20:42.309Z,14.07
2023-02-11T00:23:09.539Z,14.65
2023-02-11T00:25:41.511Z,14.02
2023-02-11T00:28:09.529Z,14.05
2023-02-11T00:30:36.911Z,13.60
2023-02-11T00:33:04.318Z,14.50
2023-02-11T00:35:31.169Z,14.43
2023-02-11T00:37:57.977Z,14.30
2023-02-11T00:40:24.983Z,14.68
2023-02-11T00:42:51.734Z,14.93
2023-02-11T00:45:20.866Z,14.90
2023-02-11T00:47:47.908Z,14.00
2023-02-11T00:50:15.035Z,14.43
2023-02-11T00:52:41.804Z,14.77
2023-02-11T00:55:09.056Z,14.07
2023-02-11T00:57:35.881Z,14.02
2023-02-11T01:00:04.374Z,15.18
2023-02-11T01:02:33.298Z,14.77
2023-02-11T01:05:00.897Z,15.02
2023-02-11T01:07:28.635Z,14.23
2023-02-11T01:09:55.587Z,14.48
2023-02-11T01:12:23.140Z,14.90
2023-02-11T01:14:49.926Z,15.15
2023-02-11T01:17:16.710Z,14.15
2023-02-11T01:19:43.479Z,15.05
2023-02-11T01:22:10.402Z,15.07
2023-02-11T01:24:37.204Z,14.40
2023-02-11T01:27:04.096Z,14.45
2023-02-11T01:29:30.943Z,14.32
2023-02-11T01:31:58.012Z,14.45
2023-02-11T01:34:24.784Z,15.20
2023-02-11T01:36:51.548Z,14.77
2023-02-11T01:39:18.356Z,14.70
2023-02-11T01:41:45.132Z,15.52
2023-02-11T01:44:28.294Z,15.65
2023-02-11T01:46:55.627Z,15.40
2023-02-11T01:49:31.640Z,14.90
2023-02-11T01:52:10.343Z,16.35
2023-02-11T01:55:00.479Z,15.82
2023-02-11T01:57:30.387Z,16.23
2023-02-11T01:59:57.157Z,15.63
2023-02-11T02:02:30.681Z,15.32
2023-02-11T02:05:23.337Z,15.55
2023-02-11T02:08:03.629Z,15.00
2023-02-11T02:10:32.087Z,15.77
2023-02-11T02:12:58.828Z,15.65
2023-02-11T02:15:25.706Z,15.25
2023-02-11T02:18:00.771Z,15.57
2023-02-11T02:20:36.164Z,15.40
2023-02-11T02:23:22.112Z,16.27
2023-02-11T02:26:26.391Z,16.13
2023-02-11T02:29:05.483Z,15.38
2023-02-11T02:31:51.803Z,16.20
2023-02-11T02:34:50.144Z,16.05
2023-02-11T02:37:31.610Z,15.40
2023-02-11T02:40:02.119Z,15.77
2023-02-11T02:42:29.322Z,17.35
2023-02-11T02:44:56.513Z,16.88
2023-02-11T02:47:23.301Z,16.90
2023-02-11T02:49:50.113Z,16.85
2023-02-11T02:52:50.366Z,16.50
2023-02-11T02:55:28.423Z,15.73
2023-02-11T02:58:22.095Z,16.25
2023-02-11T03:01:13.312Z,16.10
2023-02-11T03:04:01.051Z,16.23
2023-02-11T03:06:46.604Z,16.42
2023-02-11T03:09:34.220Z,15.63
2023-02-11T03:12:03.020Z,16.13
2023-02-11T03:14:32.123Z,15.60
2023-02-11T03:17:01.844Z,15.77
2023-02-11T03:19:39.944Z,15.80
2023-02-11T03:22:21.886Z,16.05
2023-02-11T03:24:49.229Z,15.52
2023-02-11T03:27:20.734Z,18.08
2023-02-11T03:29:59.685Z,16.00
2023-02-11T03:32:32.781Z,16.02
2023-02-11T03:35:07.495Z,17.42
2023-02-11T03:37:41.891Z,16.25
2023-02-11T03:40:17.003Z,16.20
2023-02-11T03:42:58.164Z,16.60
2023-02-11T03:45:26.966Z,17.25
2023-02-11T03:48:29.439Z,17.15
2023-02-11T03:50:58.285Z,16.83
2023-02-11T03:53:25.173Z,16.42
2023-02-11T03:55:54.735Z,16.20
2023-02-11T03:58:21.561Z,16.15
2023-02-11T04:00:48.719Z,15.30
2023-02-11T04:03:15.631Z,15.35
2023-02-11T04:05:42.457Z,14.25
2023-02-11T04:08:09.293Z,15.02
2023-02-11T04:10:36.083Z,15.45
2023-02-11T04:13:03.043Z,15.27
2023-02-11T04:15:29.801Z,15.85
2023-02-11T04:17:56.560Z,16.55
2023-02-11T04:20:23.345Z,15.38
2023-02-11T04:22:50.095Z,15.02
2023-02-11T04:25:17.004Z,15.55
2023-02-11T04:27:43.739Z,16.65
2023-02-11T04:30:11.072Z,15.70
2023-02-11T04:32:37.984Z,15.73
2023-02-11T04:35:06.010Z,16.35
2023-02-11T04:37:32.896Z,16.40
2023-02-11T04:39:59.683Z,16.23
2023-02-11T04:42:26.462Z,15.98
2023-02-11T04:44:53.257Z,16.05
2023-02-11T04:47:20.113Z,16.10
2023-02-11T04:49:46.838Z,15.95
2023-02-11T04:52:13.576Z,16.75
2023-02-11T04:54:40.592Z,16.33
2023-02-11T04:57:07.411Z,17.13
2023-02-11T04:59:34.143Z,16.58
2023-02-11T05:02:00.938Z,16.17
2023-02-11T05:04:27.744Z,17.15
2023-02-11T05:06:55.654Z,16.10
2023-02-11T05:09:23.861Z,17.92
2023-02-11T05:11:50.630Z,16.23
2023-02-11T05:14:17.452Z,15.80
2023-02-11T05:16:44.271Z,15.43
2023-02-11T05:19:11.378Z,16.10
2023-02-11T05:21:38.139Z,16.92
2023-02-11T05:24:05.282Z,16.95
2023-02-11T05:26:32.712Z,15.82
2023-02-11T05:28:59.598Z,15.15
2023-02-11T05:31:26.445Z,15.93
2023-02-11T05:33:53.198Z,16.52
2023-02-11T05:36:19.949Z,15.98
2023-02-11T05:38:46.722Z,16.13
2023-02-11T05:41:13.756Z,15.20
2023-02-11T05:43:40.489Z,15.70
2023-02-11T05:46:07.251Z,14.63
2023-02-11T05:48:34.514Z,15.57
2023-02-11T05:51:01.321Z,15.13
2023-02-11T05:53:28.145Z,15.57
2023-02-11T05:55:54.963Z,15.48
2023-02-11T05:58:21.737Z,15.85
2023-02-11T06:00:48.521Z,15.02
2023-02-11T06:03:15.329Z,16.17
2023-02-11T06:05:43.955Z,15.45
2023-02-11T06:08:10.991Z,15.07
2023-02-11T06:10:37.846Z,15.65
2023-02-11T06:13:04.677Z,14.98
2023-02-11T06:15:31.415Z,14.85
2023-02-11T06:17:58.228Z,15.65
2023-02-11T06:20:25.014Z,16.20
2023-02-11T06:22:51.744Z,15.40
2023-02-11T06:25:18.613Z,15.77
2023-02-11T06:27:45.397Z,14.30
2023-02-11T06:30:12.824Z,14.75
2023-02-11T06:32:44.314Z,15.63
2023-02-11T06:35:13.166Z,15.93
2023-02-11T06:37:41.204Z,15.40
2023-02-11T06:40:08.772Z,15.65
2023-02-11T06:42:36.178Z,15.98
2023-02-11T06:45:06.021Z,16.00
2023-02-11T06:47:32.847Z,15.32
2023-02-11T06:49:59.646Z,16.17
2023-02-11T06:52:27.015Z,15.88
2023-02-11T06:54:53.881Z,15.20
2023-02-11T06:57:20.665Z,16.15
2023-02-11T06:59:47.491Z,15.50
2023-02-11T07:02:14.398Z,15.00
2023-02-11T07:04:41.519Z,15.45
2023-02-11T07:07:08.403Z,14.70
2023-02-11T07:09:35.212Z,14.55
2023-02-11T07:12:01.965Z,15.48
2023-02-11T07:14:29.099Z,14.35
2023-02-11T07:16:55.855Z,15.07
2023-02-11T07:19:22.694Z,15.65
2023-02-11T07:21:49.445Z,15.93
2023-02-11T07:24:16.306Z,15.55
2023-02-11T07:26:43.198Z,14.77
2023-02-11T07:29:09.975Z,14.93
2023-02-11T07:31:36.824Z,14.75
2023-02-11T07:34:03.910Z,14.30
2023-02-11T07:36:32.017Z,14.55
2023-02-11T07:39:00.201Z,14.77
2023-02-11T07:41:28.075Z,14.48
2023-02-11T07:43:55.376Z,13.55
2023-02-11T07:46:27.609Z,14.05
2023-02-11T07:48:55.416Z,14.32
2023-02-11T07:51:30.909Z,14.02
2023-02-11T07:53:59.589Z,14.43
2023-02-11T07:56:27.267Z,15.05
2023-02-11T07:58:54.985Z,14.98
2023-02-11T08:01:25.860Z,13.77
2023-02-11T08:03:53.201Z,14.35
2023-02-11T08:06:21.736Z,14.18
2023-02-11T08:08:49.389Z,14.75
2023-02-11T08:11:27.812Z,14.20
2023-02-11T08:13:56.336Z,13.77
2023-02-11T08:16:24.458Z,14.50
2023-02-11T08:18:52.315Z,13.85
2023-02-11T08:21:20.029Z,14.70
2023-02-11T08:23:47.144Z,14.23
2023-02-11T08:26:17.662Z,13.32
2023-02-11T08:28:46.603Z,14.07
2023-02-11T08:31:18.883Z,14.63
2023-02-11T08:33:46.245Z,14.23
2023-02-11T08:36:15.341Z,14.02
2023-02-11T08:38:42.658Z,13.63
2023-02-11T08:41:09.872Z,14.80
2023-02-11T08:43:41.584Z,14.80
2023-02-11T08:46:11.532Z,14.20
2023-02-11T08:48:38.320Z,14.68
2023-02-11T08:51:09.567Z,14.07
2023-02-11T08:53:37.014Z,14.20
2023-02-11T08:56:04.199Z,13.75
2023-02-11T08:58:31.023Z,13.65
2023-02-11T09:00:57.990Z,13.75
2023-02-11T09:03:24.847Z,14.60
2023-02-11T09:05:53.315Z,15.05
2023-02-11T09:08:20.908Z,15.02
2023-02-11T09:10:48.497Z,14.48
2023-02-11T09:13:16.849Z,14.30
2023-02-11T09:15:46.942Z,14.68
2023-02-11T09:18:14.064Z,14.57
2023-02-11T09:20:40.927Z,13.70
2023-02-11T09:23:07.694Z,14.68
2023-02-11T09:25:34.450Z,14.18
2023-02-11T09:28:01.318Z,14.68
2023-02-11T09:30:28.257Z,15.10
2023-02-11T09:32:55.143Z,13.50
2023-02-11T09:35:21.887Z,13.48
2023-02-11T09:37:48.652Z,13.65
2023-02-11T09:40:16.401Z,13.75
2023-02-11T09:43:01.765Z,13.48
2023-02-11T09:45:31.685Z,14.32
2023-02-11T09:48:00.614Z,14.00
2023-02-11T09:50:40.486Z,13.18
2023-02-11T09:53:16.689Z,13.20
2023-02-11T09:55:46.873Z,13.73
2023-02-11T09:58:18.044Z,14.05
2023-02-11T10:01:02.986Z,12.68
2023-02-11T10:03:38.679Z,13.35
2023-02-11T10:06:26.974Z,13.80
2023-02-11T10:09:07.174Z,12.93
2023-02-11T10:11:51.785Z,13.55
2023-02-11T10:14:40.170Z,13.50
2023-02-11T10:17:40.742Z,13.82
2023-02-11T10:20:10.486Z,12.93
2023-02-11T10:22:53.951Z,14.38
2023-02-11T10:25:25.203Z,12.23
2023-02-11T10:27:54.566Z,12.85
2023-02-11T10:30:42.525Z,13.32
2023-02-11T10:33:34.240Z,11.95
2023-02-11T10:36:01.116Z,13.02
2023-02-11T10:38:28.068Z,13.20
2023-02-11T10:40:54.917Z,13.38
2023-02-11T10:43:26.645Z,12.77
2023-02-11T10:45:55.940Z,13.02
2023-02-11T10:48:42.682Z,12.60
2023-02-11T10:53:43.174Z,12.20
2023-02-11T10:56:14.362Z,11.57
2023-02-11T10:58:56.089Z,12.75
2023-02-11T11:01:25.000Z,11.13
2023-02-11T11:03:52.945Z,11.63
2023-02-11T11:06:31.864Z,11.35
2023-02-11T11:08:58.795Z,12.00
2023-02-11T11:11:26.570Z,11.63
2023-02-11T11:13:53.273Z,11.65
2023-02-11T11:16:30.962Z,11.48
2023-02-11T11:19:06.749Z,11.85
2023-02-11T11:21:49.933Z,11.73
2023-02-11T11:24:19.587Z,11.65
2023-02-11T11:26:48.686Z,12.52
2023-02-11T11:29:38.445Z,11.40
2023-02-11T11:32:16.582Z,11.95
2023-02-11T11:34:55.505Z,12.07
2023-02-11T11:37:31.957Z,12.40
2023-02-11T11:40:23.910Z,12.15
2023-02-11T11:43:12.292Z,11.80
2023-02-11T11:45:39.729Z,11.40
2023-02-11T11:48:09.854Z,12.68
2023-02-11T11:51:07.119Z,11.48
2023-02-11T11:56:13.013Z,11.00
2023-02-11T11:58:40.455Z,11.13
2023-02-11T12:01:26.023Z,9.63
2023-02-11T12:04:13.381Z,9.93
2023-02-11T12:07:07.743Z,13.05
2023-02-11T12:09:48.245Z,14.60
2023-02-11T12:12:26.753Z,14.52
2023-02-11T12:15:12.135Z,14.68
2023-02-11T12:18:05.654Z,13.32
2023-02-11T12:20:59.705Z,12.77
2023-02-11T12:23:58.940Z,10.98
2023-02-11T12:26:44.980Z,10.80
2023-02-11T12:29:36.442Z,10.55
2023-02-11T12:32:18.129Z,9.88
2023-02-11T12:35:12.204Z,10.20
2023-02-11T12:38:05.113Z,9.75
2023-02-11T12:40:43.590Z,9.90
2023-02-11T12:43:28.783Z,10.00
2023-02-11T12:46:29.606Z,9.38
2023-02-11T12:49:22.309Z,9.48
2023-02-11T12:52:04.602Z,9.07
2023-02-11T12:55:00.360Z,9.30
2023-02-11T12:57:31.824Z,8.70
2023-02-11T13:00:19.036Z,8.55
2023-02-11T13:02:56.113Z,8.43
2023-02-11T13:05:26.100Z,9.15
2023-02-11T13:07:59.254Z,8.73
2023-02-11T13:10:41.615Z,9.32
2023-02-11T13:13:46.159Z,9.57
2023-02-11T13:16:41.767Z,8.93
2023-02-11T13:19:14.564Z,8.90
2023-02-11T13:22:16.353Z,9.20
2023-02-11T13:25:14.476Z,10.40
2023-02-11T13:27:58.838Z,10.00
2023-02-11T13:30:32.889Z,10.00
2023-02-11T13:33:02.476Z,9.85
2023-02-11T13:35:33.646Z,10.00
2023-02-11T13:38:16.963Z,10.13
2023-02-11T13:40:44.479Z,10.57
2023-02-11T13:43:28.727Z,10.80
2023-02-11T13:46:05.168Z,10.95
2023-02-11T13:48:36.165Z,10.25
2023-02-11T13:51:11.439Z,10.95
2023-02-11T13:54:05.429Z,9.65
2023-02-11T13:56:38.794Z,11.20
2023-02-11T13:59:25.818Z,10.73
2023-02-11T14:02:36.174Z,10.40
2023-02-11T14:05:24.464Z,10.52
2023-02-11T14:08:28.114Z,9.98
2023-02-11T14:11:19.139Z,11.18
2023-02-11T14:13:49.058Z,10.93
2023-02-11T14:16:31.675Z,10.73
2023-02-11T14:19:03.580Z,10.75
2023-02-11T14:21:42.351Z,11.27
2023-02-11T14:24:12.925Z,11.68
2023-02-11T14:26:58.534Z,10.52
2023-02-11T14:29:33.936Z,11.10
2023-02-11T14:32:25.278Z,10.90
2023-02-11T14:35:05.325Z,10.55
2023-02-11T14:37:56.278Z,11.32
2023-02-11T14:40:34.076Z,10.93
2023-02-11T14:43:18.457Z,11.48
2023-02-11T14:45:50.669Z,11.55
2023-02-11T14:48:19.270Z,13.45
2023-02-11T14:51:20.302Z,12.35
2023-02-11T14:53:50.340Z,12.30
2023-02-11T14:56:21.052Z,11.77
2023-02-11T14:58:51.921Z,12.43
2023-02-11T15:01:36.635Z,12.35
2023-02-11T15:04:06.099Z,13.23
2023-02-11T15:06:46.044Z,11.63
2023-02-11T15:09:29.327Z,11.02
2023-02-11T15:11:57.156Z,12.20
2023-02-11T15:14:27.412Z,11.10
2023-02-11T15:16:57.642Z,10.70
2023-02-11T15:19:41.137Z,11.40
2023-02-11T15:22:26.786Z,11.70
2023-02-11T15:25:11.499Z,11.15
2023-02-11T15:27:43.663Z,11.82
2023-02-11T15:30:22.754Z,11.38
2023-02-11T15:33:00.777Z,11.43
2023-02-11T15:35:37.226Z,11.55
2023-02-11T15:38:04.594Z,11.23
2023-02-11T15:40:34.052Z,11.57
2023-02-11T15:43:09.445Z,12.05
2023-02-11T15:45:52.977Z,11.43
2023-02-11T15:48:26.904Z,11.23
2023-02-11T15:51:00.222Z,10.68
2023-02-11T15:53:40.601Z,10.43
2023-02-11T15:56:30.802Z,11.10
2023-02-11T15:59:00.350Z,11.15
2023-02-11T16:01:35.834Z,11.60
2023-02-11T16:04:04.895Z,10.48
2023-02-11T16:06:38.919Z,11.23
2023-02-11T16:09:08.417Z,11.15
2023-02-11T16:11:53.695Z,10.93
2023-02-11T16:14:29.495Z,10.98
2023-02-11T16:17:06.333Z,11.05
2023-02-11T16:19:35.027Z,10.90
2023-02-11T16:22:08.370Z,11.10
2023-02-11T16:24:37.214Z,11.95
2023-02-11T16:27:07.645Z,11.27
2023-02-11T16:29:37.202Z,11.15
2023-02-11T16:32:20.908Z,12.10
2023-02-11T16:34:47.978Z,11.77
2023-02-11T16:37:15.156Z,10.60
2023-02-11T16:39:42.060Z,11.50
2023-02-11T16:42:09.895Z,11.70
2023-02-11T16:44:36.699Z,11.32
2023-02-11T16:47:06.355Z,10.63
2023-02-11T16:49:37.369Z,11.60
2023-02-11T16:52:08.535Z,11.65
2023-02-11T16:54:35.310Z,11.80
2023-02-11T16:57:06.031Z,12.02
2023-02-11T16:59:32.803Z,12.15
2023-02-11T17:01:59.610Z,12.07
2023-02-11T17:04:30.018Z,12.18
2023-02-11T17:06:58.491Z,12.32
2023-02-11T17:09:30.618Z,11.77
2023-02-11T17:11:58.013Z,12.80
2023-02-11T17:14:24.816Z,12.82
2023-02-11T17:16:51.657Z,11.43
2023-02-11T17:19:23.683Z,11.77
2023-02-11T17:21:52.383Z,13.02
2023-02-11T17:24:20.210Z,11.15
2023-02-11T17:26:47.881Z,11.32
2023-02-11T17:29:17.724Z,10.80
2023-02-11T17:31:44.970Z,12.05
2023-02-11T17:34:12.313Z,11.20
2023-02-11T17:36:41.401Z,11.35
2023-02-11T17:39:08.841Z,12.27
2023-02-11T17:41:37.459Z,11.13
2023-02-11T17:44:05.106Z,11.85
2023-02-11T17:46:32.326Z,11.73
2023-02-11T17:48:59.610Z,11.35
2023-02-11T17:51:27.901Z,11.13
2023-02-11T17:53:56.750Z,12.18
2023-02-11T17:56:23.732Z,11.80
2023-02-11T17:58:50.599Z,11.23
2023-02-11T18:01:17.458Z,10.55
2023-02-11T18:03:44.306Z,11.15
2023-02-11T18:06:11.611Z,10.82
2023-02-11T18:08:38.495Z,10.68
2023-02-11T18:11:11.613Z,10.93
2023-02-11T18:13:38.397Z,10.55
2023-02-11T18:16:06.007Z,10.63
2023-02-11T18:18:32.861Z,11.07
2023-02-11T18:21:02.950Z,10.55
2023-02-11T18:23:30.267Z,10.88
2023-02-11T18:25:57.023Z,10.68
2023-02-11T18:28:23.838Z,11.35
2023-02-11T18:30:58.247Z,10.50
2023-02-11T18:33:25.916Z,11.43
2023-02-11T18:35:53.036Z,10.30
2023-02-11T18:38:19.943Z,10.18
2023-02-11T18:40:47.502Z,10.70
2023-02-11T18:43:14.605Z,9.57
2023-02-11T18:45:45.441Z,11.27
2023-02-11T18:48:14.378Z,12.38
2023-02-11T18:50:45.660Z,12.52
2023-02-11T18:53:13.826Z,14.90
2023-02-11T18:55:42.986Z,14.05
2023-02-11T18:58:09.827Z,14.60
2023-02-11T19:00:40.278Z,13.23
2023-02-11T19:03:07.376Z,14.23
2023-02-11T19:05:42.078Z,13.48
2023-02-11T19:08:09.289Z,12.48
2023-02-11T19:10:40.618Z,12.10
2023-02-11T19:13:07.591Z,11.27
2023-02-11T19:15:40.172Z,11.38
2023-02-11T19:18:06.944Z,11.73
2023-02-11T19:20:34.052Z,10.45
2023-02-11T19:23:01.004Z,11.27
2023-02-11T19:25:27.954Z,10.65
2023-02-11T19:27:54.760Z,10.68
2023-02-11T19:30:21.829Z,10.52
2023-02-11T19:32:52.429Z,11.13
2023-02-11T19:35:22.344Z,10.57
2023-02-11T19:37:49.118Z,10.88
2023-02-11T19:40:16.628Z,10.85
2023-02-11T19:42:43.469Z,10.68
2023-02-11T19:45:10.585Z,11.40
2023-02-11T19:47:37.358Z,10.23
2023-02-11T19:50:05.936Z,10.65
2023-02-11T19:52:32.747Z,11.13
2023-02-11T19:55:00.193Z,10.40
2023-02-11T19:57:26.942Z,11.05
2023-02-11T19:59:54.940Z,11.77
2023-02-11T20:02:22.167Z,10.35
2023-02-11T20:04:50.204Z,11.20
2023-02-11T20:07:16.978Z,12.50
2023-02-11T20:09:43.803Z,12.15
2023-02-11T20:12:11.960Z,12.43
2023-02-11T20:14:38.832Z,12.20
2023-02-11T20:17:05.659Z,12.55
2023-02-11T20:19:32.549Z,13.40
2023-02-11T20:21:59.940Z,12.68
2023-02-11T20:24:26.871Z,13.70
2023-02-11T20:26:55.783Z,13.43
2023-02-11T20:29:23.434Z,13.25
2023-02-11T20:31:50.895Z,14.27
2023-02-11T20:34:18.151Z,11.85
2023-02-11T20:36:51.709Z,13.63
2023-02-11T20:39:21.702Z,12.40
2023-02-11T20:41:49.002Z,12.07
2023-02-11T20:44:16.827Z,12.27
2023-02-11T20:46:47.921Z,11.98
2023-02-11T20:49:18.742Z,11.20
2023-02-11T20:51:45.901Z,11.90
2023-02-11T20:54:14.423Z,11.40
2023-02-11T20:56:41.562Z,11.38
2023-02-11T20:59:08.498Z,11.80
2023-02-11T21:01:40.613Z,11.18
2023-02-11T21:04:13.057Z,10.70
2023-02-11T21:06:43.473Z,10.57
2023-02-11T21:09:13.524Z,10.77
2023-02-11T21:11:41.516Z,11.40
2023-02-11T21:14:09.954Z,10.45
2023-02-11T21:16:38.545Z,11.15
2023-02-11T21:19:06.452Z,10.70
2023-02-11T21:21:35.224Z,11.00
2023-02-11T21:24:02.648Z,10.82
2023-02-11T21:26:29.557Z,11.20
2023-02-11T21:28:56.565Z,11.45
2023-02-11T21:31:27.293Z,11.38
2023-02-11T21:33:55.955Z,11.13
2023-02-11T21:36:23.896Z,10.60
2023-02-11T21:38:51.006Z,10.95
2023-02-11T21:41:19.781Z,10.57
2023-02-11T21:43:46.524Z,11.55
2023-02-11T21:46:15.496Z,10.60
2023-02-11T21:48:42.795Z,10.15
2023-02-11T21:51:16.408Z,9.60
2023-02-11T21:53:43.371Z,9.60
2023-02-11T21:56:13.575Z,10.18
2023-02-11T21:58:40.965Z,9.73
2023-02-11T22:01:17.788Z,9.45
2023-02-11T22:03:46.066Z,8.98
2023-02-11T22:06:16.364Z,9.02
2023-02-11T22:08:43.412Z,9.05
2023-02-11T22:11:12.383Z,8.93
2023-02-11T22:13:40.665Z,9.30
2023-02-11T22:16:11.145Z,9.13
2023-02-11T22:18:39.321Z,8.80
2023-02-11T22:21:08.835Z,8.70
2023-02-11T22:23:37.141Z,9.00
2023-02-11T22:26:07.138Z,8.57
2023-02-11T22:28:35.329Z,9.05
2023-02-11T22:31:02.385Z,8.93
2023-02-11T22:33:29.634Z,8.77
2023-02-11T22:36:08.526Z,8.43
2023-02-11T22:38:35.888Z,9.00
2023-02-11T22:41:06.792Z,8.93
2023-02-11T22:43:33.937Z,9.00
2023-02-11T22:46:02.785Z,8.40
2023-02-11T22:48:29.686Z,9.23
2023-02-11T22:50:56.611Z,8.73
2023-02-11T22:53:25.456Z,8.85
2023-02-11T22:55:52.671Z,9.35
2023-02-11T22:58:22.860Z,9.80
2023-02-11T23:00:49.764Z,9.85
2023-02-11T23:03:17.155Z,10.20
2023-02-11T23:05:44.190Z,10.77
2023-02-11T23:08:11.687Z,11.25
2023-02-11T23:10:39.937Z,10.60
2023-02-11T23:13:07.887Z,11.40
2023-02-11T23:15:39.442Z,11.18
2023-02-11T23:18:06.693Z,11.63
2023-02-11T23:20:37.668Z,11.75
2023-02-11T23:23:06.080Z,11.25
2023-02-11T23:25:33.722Z,10.55
2023-02-11T23:28:02.031Z,10.95
2023-02-11T23:30:29.097Z,10.88
2023-02-11T23:32:55.863Z,10.23
2023-02-11T23:35:23.145Z,11.13
2023-02-11T23:37:51.594Z,11.02
2023-02-11T23:40:20.154Z,10.57
2023-02-11T23:42:47.717Z,11.95
2023-02-11T23:45:15.127Z,11.07
2023-02-11T23:47:41.966Z,12.00
2023-02-11T23:50:09.903Z,11.88
2023-02-11T23:52:37.035Z,10.45
2023-02-11T23:55:04.199Z,11.60
2023-02-11T23:57:34.394Z,10.90
